Sandspit Airport
CYZP : rendu visible

Aérodrome :











RETROUVEZ-NOUS SUR...

 
LOGIN :

S'inscrire | Disclaimer

   EN    FR    IT 

 









Légende :    VFR   VFR Marginal   IFR   IFR Intensif   IFR Très Intensif
Visi : 
Plafond : 
>= 8 km
>= 3000ft
5 à 8 km
1000 à 3000 ft
1500m à 5 km
500 à 1000 ft
800 à 1500m
200 à 500 ft
< 800m
< 200 ft
Symboles :   Orages  Brouillard  Fortes neiges  Fortes précipitations  Vent > 20 kt






- Altitude de l'aérodrome : 21 ft
- Code IATA : YZP


CYZP - Sandspit

DERNIER METAR :
  • 100700Z AUTO 14025G35KT 9SM FEW015 BKN210 08/07 A2980 RMK SLP092

METARs EXPIRÉS :
  • 100628Z AUTO 14026G34KT 9SM SCT013 BKN040 BKN200 OVC230 08/07 A2980 RMK SLP094
  • 100611Z AUTO 14025G32KT 8SM FEW007 BKN013 OVC040 08/07 A2982 RMK SLP099
  • 100606Z AUTO 14026G35KT 7SM SCT009 OVC013 08/07 A2982 RMK SLP100
  • 100554Z AUTO 14028G36KT 6SM BR OVC010 08/07 A2983 RMK SLP101
  • 100537Z AUTO 13027G34KT 6SM BR BKN007 OVC014 08/07 A2983 RMK SLP103
  • 100500Z AUTO 14026G35KT 4SM BR OVC009 08/07 A2984 RMK SLP105
  • 100426Z AUTO 14028G35KT 5SM BR BKN009 OVC014 08/07 A2984 RMK SLP106
  • 100414Z AUTO 14027G33KT 3SM BR OVC007 08/07 A2984 RMK SLP107

TAF TAF CYZP
Valide du 10 à 07h jusqu'au 10 à 19h UTC


100638Z 1007/1019 14025G35KT P6SM SCT012 OVC030
TEMPO 1007/1010 5SM -RA BR BKN008 OVC020
FM101000 13025G35KT 2SM -RA BR BKN006 OVC010
TEMPO 1010/1017 6SM -RA BR SCT006 OVC010
FM101700 26015G25KT P6SM BKN020 RMK FCST BASED ON AUTO OBS. NXT FCST BY 101300Z



MET'MAP, la Météo Aéronautique d'un coup d'oeil ! - Copyright ORBIFLY Décembre 2007 - Disclaimer

ORBIFLY MET'MAP TEAM :

Programmation & Développement : Alexandra Zaïnal
Sur une idée originale de : Baudouin d'Aumeries
Assistance à la programmation : Marc-Olivier Méhu
Soutien technique & logistique : Manuel Goepfert

Contact : metmap@orbifly.com




SOURCES & CREDITS :

   NOAA       Earth
Advisory